Huvudsida
METAR-TAF:

METAR-TAF

Flygplatser :

Dasht-e Naz Airport

Sari, Iran

latitud: 36-38-09N, longitud: 53-11-37E, höjd: 11 m

Aktuellt väderrapport

Denna rapport gjordes för 33 minuter sedan, klockan 13:00 UTC
Vind 10 kt från väst/nordväst
Temperatur 21°C
Fuktighet 78%
Tryck 1023 hPa
Sikt: 3000 m
Spridda moln på en höjd av 1700 ft
Få moln på en höjd av 2300 ft, Cumulonimbus.
Mulet på en höjd av 9000 ft
torrdis

METAR: OINZ 271300Z 29010KT 3000 HZ SCT017 FEW023CB OVC090 21/17 Q1023

Tid: 18:03 (13:33 UTC)


TAF: saknas

Aktuella väderrapporter och prognoser från 4000 flygplatser (METAR- och TAF-rapporter).

De tillgängliga stationerna syns som gula och röda prickar på kartan.

För musen över prickarna för att se namnen på stationerna.

Klicka sedan för att få väderrapporter och prognoser.

För att ändra kartan: Klicka på de gröna knapparna med ett svart kors på för att zooma in; den gröna knappen med ett streck på för att zooma ut; eller på de gröna pilarna för angränsande kartor.


METAR-TAF: